Selawik Airport Selawik US
ICAO: PASK
IATA:
Category: Medium
Scheduled Services:

Elevation: 17 ft
TransAlt. 18000 ft.

Airport Communications:
AWOS 3:135.65
ANCHORAGE CNTR:119.2
CTAF:122.7
KOTZEBUE RDO:122.5
TWEB:114.2

PASK Zoom In..

If you have problems with the map follow the link
https://www.worldairports.se/pages/airport.php?
ICAO=PASK

Runways:

(A) RW 04 length 3002 ft width 60 ft
---- / hdg 37

(B) RW 09 length 2659 ft width 60 ft
---- / hdg 90

(C) RW 22 length 3002 ft width 60 ft
---- / hdg 217

(D) RW 27 length 2659 ft width 60 ft
---- / hdg 270

Location; PASK
Day. 11 / Time. 13.56 Zulu
* Altimeter: 29.68
* Temperature: -07° c. -19.4°f.
* Wind from: 060° Speed 12 kn.
Dewpoint: -08° c.
Visibility: 10 Statute Miles.
Clouds: Clear (automated report).

PASK 111356Z AUTO 06012KT 10SM CLR M07/M08 A2968 RMK AO2 SLP046 T10721083 FZRANO


Wind From 060°
Speed 12 kn.

 
 
jpsmedia worldairports.se 2019   terms of use